sensor_id;sensor_type;location;lat;lon;timestamp;P1;durP1;ratioP1;P2;durP2;ratioP2
50319;SDS011;36226;53.464;9.852;2023-02-12T00:01:19;16.92;;;6.38;;
50319;SDS011;36226;53.464;9.852;2023-02-12T00:03:45;15.98;;;6.32;;
50319;SDS011;36226;53.464;9.852;2023-02-12T00:06:11;13.65;;;5.75;;
50319;SDS011;36226;53.464;9.852;2023-02-12T00:08:39;14.57;;;5.07;;
50319;SDS011;36226;53.464;9.852;2023-02-12T00:13:37;13.35;;;5.20;;
50319;SDS011;36226;53.464;9.852;2023-02-12T00:16:04;10.98;;;5.18;;
50319;SDS011;36226;53.464;9.852;2023-02-12T00:18:30;13.70;;;4.22;;
50319;SDS011;36226;53.464;9.852;2023-02-12T00:20:57;10.98;;;4.38;;
50319;SDS011;36226;53.464;9.852;2023-02-12T00:23:23;8.55;;;3.45;;
50319;SDS011;36226;53.464;9.852;2023-02-12T00:25:49;10.18;;;3.55;;
50319;SDS011;36226;53.464;9.852;2023-02-12T00:28:14;7.90;;;3.42;;
50319;SDS011;36226;53.464;9.852;2023-02-12T00:30:40;7.22;;;3.08;;
50319;SDS011;36226;53.464;9.852;2023-02-12T00:33:05;7.03;;;2.88;;
50319;SDS011;36226;53.464;9.852;2023-02-12T00:35:31;8.45;;;2.80;;
50319;SDS011;36226;53.464;9.852;2023-02-12T00:37:56;6.63;;;2.58;;
50319;SDS011;36226;53.464;9.852;2023-02-12T00:40:21;8.35;;;2.47;;
50319;SDS011;36226;53.464;9.852;2023-02-12T00:42:47;6.70;;;1.90;;
50319;SDS011;36226;53.464;9.852;2023-02-12T00:45:15;4.50;;;2.22;;
50319;SDS011;36226;53.464;9.852;2023-02-12T00:47:40;4.00;;;2.10;;
50319;SDS011;36226;53.464;9.852;2023-02-12T00:50:06;7.85;;;1.90;;
50319;SDS011;36226;53.464;9.852;2023-02-12T00:52:31;4.90;;;2.22;;
50319;SDS011;36226;53.464;9.852;2023-02-12T00:54:57;3.97;;;1.88;;
50319;SDS011;36226;53.464;9.852;2023-02-12T00:57:22;5.60;;;2.20;;
50319;SDS011;36226;53.464;9.852;2023-02-12T00:59:47;6.47;;;2.47;;
50319;SDS011;36226;53.464;9.852;2023-02-12T01:02:13;6.78;;;2.50;;
50319;SDS011;36226;53.464;9.852;2023-02-12T01:04:38;5.82;;;2.70;;
50319;SDS011;36226;53.464;9.852;2023-02-12T01:07:04;9.07;;;2.80;;
50319;SDS011;36226;53.464;9.852;2023-02-12T01:09:29;6.63;;;2.70;;
50319;SDS011;36226;53.464;9.852;2023-02-12T01:11:54;5.68;;;2.55;;
50319;SDS011;36226;53.464;9.852;2023-02-12T01:14:20;8.55;;;3.20;;
50319;SDS011;36226;53.464;9.852;2023-02-12T01:16:45;7.13;;;2.92;;
50319;SDS011;36226;53.464;9.852;2023-02-12T01:19:11;8.65;;;3.08;;
50319;SDS011;36226;53.464;9.852;2023-02-12T01:21:37;8.75;;;3.00;;
50319;SDS011;36226;53.464;9.852;2023-02-12T01:24:02;8.32;;;2.95;;
50319;SDS011;36226;53.464;9.852;2023-02-12T01:26:28;9.13;;;2.97;;
50319;SDS011;36226;53.464;9.852;2023-02-12T01:28:56;6.90;;;2.47;;
50319;SDS011;36226;53.464;9.852;2023-02-12T01:31:23;6.03;;;2.58;;
50319;SDS011;36226;53.464;9.852;2023-02-12T01:33:50;7.75;;;2.92;;
50319;SDS011;36226;53.464;9.852;2023-02-12T01:36:17;6.32;;;2.70;;
50319;SDS011;36226;53.464;9.852;2023-02-12T01:38:43;7.25;;;2.75;;
50319;SDS011;36226;53.464;9.852;2023-02-12T01:41:13;7.38;;;2.70;;
50319;SDS011;36226;53.464;9.852;2023-02-12T01:43:43;6.53;;;2.65;;
50319;SDS011;36226;53.464;9.852;2023-02-12T01:46:27;8.55;;;3.10;;
50319;SDS011;36226;53.464;9.852;2023-02-12T01:48:52;6.32;;;2.42;;
50319;SDS011;36226;53.464;9.852;2023-02-12T01:51:18;7.72;;;2.90;;
50319;SDS011;36226;53.464;9.852;2023-02-12T01:53:48;6.40;;;2.53;;
50319;SDS011;36226;53.464;9.852;2023-02-12T01:56:15;4.95;;;2.20;;
50319;SDS011;36226;53.464;9.852;2023-02-12T01:58:42;5.43;;;2.15;;
50319;SDS011;36226;53.464;9.852;2023-02-12T02:01:09;5.53;;;2.58;;
50319;SDS011;36226;53.464;9.852;2023-02-12T02:03:40;5.93;;;2.50;;
50319;SDS011;36226;53.464;9.852;2023-02-12T02:06:14;5.75;;;2.33;;
50319;SDS011;36226;53.464;9.852;2023-02-12T02:08:41;5.75;;;2.28;;
50319;SDS011;36226;53.464;9.852;2023-02-12T02:11:07;5.05;;;2.40;;
50319;SDS011;36226;53.464;9.852;2023-02-12T02:13:51;5.72;;;2.40;;
50319;SDS011;36226;53.464;9.852;2023-02-12T02:16:41;5.90;;;2.45;;
50319;SDS011;36226;53.464;9.852;2023-02-12T02:19:09;5.55;;;2.63;;
50319;SDS011;36226;53.464;9.852;2023-02-12T02:37:55;5.05;;;1.98;;
50319;SDS011;36226;53.464;9.852;2023-02-12T02:40:26;4.43;;;2.03;;
50319;SDS011;36226;53.464;9.852;2023-02-12T02:42:59;6.60;;;2.47;;
50319;SDS011;36226;53.464;9.852;2023-02-12T02:48:05;4.78;;;2.15;;
50319;SDS011;36226;53.464;9.852;2023-02-12T02:50:33;8.20;;;2.72;;
50319;SDS011;36226;53.464;9.852;2023-02-12T02:53:01;4.55;;;2.33;;
50319;SDS011;36226;53.464;9.852;2023-02-12T02:55:34;6.65;;;2.70;;
50319;SDS011;36226;53.464;9.852;2023-02-12T02:58:04;6.68;;;3.80;;
50319;SDS011;36226;53.464;9.852;2023-02-12T03:00:37;6.55;;;2.63;;
50319;SDS011;36226;53.464;9.852;2023-02-12T03:03:07;7.00;;;2.92;;
50319;SDS011;36226;53.464;9.852;2023-02-12T03:05:39;6.18;;;2.53;;
50319;SDS011;36226;53.464;9.852;2023-02-12T03:08:14;7.05;;;2.88;;
50319;SDS011;36226;53.464;9.852;2023-02-12T03:10:48;6.72;;;2.78;;
50319;SDS011;36226;53.464;9.852;2023-02-12T03:13:20;6.30;;;2.53;;
50319;SDS011;36226;53.464;9.852;2023-02-12T03:15:54;8.38;;;2.67;;
50319;SDS011;36226;53.464;9.852;2023-02-12T03:18:25;6.57;;;2.28;;
50319;SDS011;36226;53.464;9.852;2023-02-12T03:20:58;7.18;;;2.58;;
50319;SDS011;36226;53.464;9.852;2023-02-12T03:23:30;6.15;;;2.40;;
50319;SDS011;36226;53.464;9.852;2023-02-12T03:26:07;7.20;;;2.30;;
50319;SDS011;36226;53.464;9.852;2023-02-12T03:28:35;5.10;;;2.20;;
50319;SDS011;36226;53.464;9.852;2023-02-12T03:31:25;6.70;;;2.10;;
50319;SDS011;36226;53.464;9.852;2023-02-12T03:41:58;5.88;;;2.45;;
50319;SDS011;36226;53.464;9.852;2023-02-12T03:47:19;7.63;;;3.30;;
50319;SDS011;36226;53.464;9.852;2023-02-12T03:49:48;9.02;;;2.50;;
50319;SDS011;36226;53.464;9.852;2023-02-12T03:52:18;7.32;;;2.70;;
50319;SDS011;36226;53.464;9.852;2023-02-12T03:54:43;7.75;;;2.88;;
50319;SDS011;36226;53.464;9.852;2023-02-12T03:57:10;5.88;;;2.72;;
50319;SDS011;36226;53.464;9.852;2023-02-12T03:59:46;9.68;;;2.63;;
50319;SDS011;36226;53.464;9.852;2023-02-12T04:02:13;13.68;;;3.25;;
50319;SDS011;36226;53.464;9.852;2023-02-12T04:04:39;10.70;;;3.00;;
50319;SDS011;36226;53.464;9.852;2023-02-12T04:07:04;8.05;;;3.17;;
50319;SDS011;36226;53.464;9.852;2023-02-12T04:09:30;7.35;;;3.40;;
50319;SDS011;36226;53.464;9.852;2023-02-12T04:20:17;8.48;;;3.28;;
50319;SDS011;36226;53.464;9.852;2023-02-12T04:31:26;23.88;;;4.68;;
50319;SDS011;36226;53.464;9.852;2023-02-12T04:33:56;12.43;;;4.60;;
50319;SDS011;36226;53.464;9.852;2023-02-12T04:36:32;10.13;;;3.85;;
50319;SDS011;36226;53.464;9.852;2023-02-12T04:39:01;10.40;;;3.85;;
50319;SDS011;36226;53.464;9.852;2023-02-12T04:41:29;11.05;;;4.45;;
50319;SDS011;36226;53.464;9.852;2023-02-12T04:43:55;11.38;;;4.35;;
50319;SDS011;36226;53.464;9.852;2023-02-12T04:46:20;10.85;;;4.03;;
50319;SDS011;36226;53.464;9.852;2023-02-12T04:48:50;13.05;;;4.25;;
50319;SDS011;36226;53.464;9.852;2023-02-12T04:51:19;11.23;;;4.15;;
50319;SDS011;36226;53.464;9.852;2023-02-12T04:53:45;15.30;;;4.55;;
50319;SDS011;36226;53.464;9.852;2023-02-12T04:56:11;12.57;;;3.95;;
50319;SDS011;36226;53.464;9.852;2023-02-12T04:58:37;13.50;;;4.38;;
50319;SDS011;36226;53.464;9.852;2023-02-12T05:01:03;18.95;;;4.40;;
50319;SDS011;36226;53.464;9.852;2023-02-12T05:03:29;12.55;;;3.92;;
50319;SDS011;36226;53.464;9.852;2023-02-12T05:06:01;11.57;;;4.00;;
50319;SDS011;36226;53.464;9.852;2023-02-12T05:08:27;11.98;;;3.22;;
50319;SDS011;36226;53.464;9.852;2023-02-12T05:10:53;12.00;;;4.00;;
50319;SDS011;36226;53.464;9.852;2023-02-12T05:13:18;10.77;;;4.03;;
50319;SDS011;36226;53.464;9.852;2023-02-12T05:15:43;9.68;;;3.72;;
50319;SDS011;36226;53.464;9.852;2023-02-12T05:18:09;12.07;;;3.72;;
50319;SDS011;36226;53.464;9.852;2023-02-12T05:20:34;10.88;;;3.95;;
50319;SDS011;36226;53.464;9.852;2023-02-12T05:22:59;14.80;;;3.97;;
50319;SDS011;36226;53.464;9.852;2023-02-12T05:25:25;8.35;;;3.28;;
50319;SDS011;36226;53.464;9.852;2023-02-12T05:27:50;13.93;;;3.65;;
50319;SDS011;36226;53.464;9.852;2023-02-12T05:30:15;8.77;;;3.13;;
50319;SDS011;36226;53.464;9.852;2023-02-12T05:32:41;12.27;;;3.53;;
50319;SDS011;36226;53.464;9.852;2023-02-12T05:35:06;14.75;;;3.45;;
50319;SDS011;36226;53.464;9.852;2023-02-12T05:37:35;11.48;;;3.60;;
50319;SDS011;36226;53.464;9.852;2023-02-12T05:40:02;13.40;;;3.78;;
50319;SDS011;36226;53.464;9.852;2023-02-12T05:42:30;19.35;;;3.70;;
50319;SDS011;36226;53.464;9.852;2023-02-12T05:44:56;13.15;;;3.85;;
50319;SDS011;36226;53.464;9.852;2023-02-12T05:47:21;13.98;;;3.63;;
50319;SDS011;36226;53.464;9.852;2023-02-12T05:49:46;12.65;;;3.67;;
50319;SDS011;36226;53.464;9.852;2023-02-12T05:52:11;20.00;;;3.90;;
50319;SDS011;36226;53.464;9.852;2023-02-12T05:54:37;28.52;;;4.75;;
50319;SDS011;36226;53.464;9.852;2023-02-12T05:57:02;21.48;;;4.38;;
50319;SDS011;36226;53.464;9.852;2023-02-12T05:59:28;13.93;;;4.18;;
50319;SDS011;36226;53.464;9.852;2023-02-12T06:01:53;14.73;;;4.20;;
50319;SDS011;36226;53.464;9.852;2023-02-12T06:04:20;14.45;;;4.45;;
50319;SDS011;36226;53.464;9.852;2023-02-12T06:06:47;19.50;;;4.28;;
50319;SDS011;36226;53.464;9.852;2023-02-12T06:09:13;24.27;;;4.60;;
50319;SDS011;36226;53.464;9.852;2023-02-12T06:11:39;19.80;;;4.28;;
50319;SDS011;36226;53.464;9.852;2023-02-12T06:14:05;28.90;;;5.22;;
50319;SDS011;36226;53.464;9.852;2023-02-12T06:16:32;20.55;;;5.10;;
50319;SDS011;36226;53.464;9.852;2023-02-12T06:18:59;16.33;;;4.78;;
50319;SDS011;36226;53.464;9.852;2023-02-12T06:21:26;26.60;;;6.03;;
50319;SDS011;36226;53.464;9.852;2023-02-12T06:23:52;22.13;;;5.65;;
50319;SDS011;36226;53.464;9.852;2023-02-12T06:26:17;21.83;;;5.95;;
50319;SDS011;36226;53.464;9.852;2023-02-12T06:28:43;27.17;;;6.65;;
50319;SDS011;36226;53.464;9.852;2023-02-12T06:31:20;21.70;;;6.13;;
50319;SDS011;36226;53.464;9.852;2023-02-12T06:33:47;20.88;;;6.35;;
50319;SDS011;36226;53.464;9.852;2023-02-12T06:36:12;24.63;;;6.13;;
50319;SDS011;36226;53.464;9.852;2023-02-12T06:38:38;21.02;;;5.85;;
50319;SDS011;36226;53.464;9.852;2023-02-12T06:41:03;24.67;;;6.15;;
50319;SDS011;36226;53.464;9.852;2023-02-12T06:43:28;23.83;;;6.97;;
50319;SDS011;36226;53.464;9.852;2023-02-12T06:45:54;18.25;;;5.50;;
50319;SDS011;36226;53.464;9.852;2023-02-12T06:48:19;21.45;;;6.63;;
50319;SDS011;36226;53.464;9.852;2023-02-12T06:50:44;24.33;;;6.93;;
50319;SDS011;36226;53.464;9.852;2023-02-12T06:53:10;22.48;;;6.50;;
50319;SDS011;36226;53.464;9.852;2023-02-12T06:55:35;25.48;;;6.95;;
50319;SDS011;36226;53.464;9.852;2023-02-12T06:58:01;22.88;;;6.10;;
50319;SDS011;36226;53.464;9.852;2023-02-12T07:00:26;29.55;;;7.32;;
50319;SDS011;36226;53.464;9.852;2023-02-12T07:02:52;30.40;;;7.20;;
50319;SDS011;36226;53.464;9.852;2023-02-12T07:05:19;22.85;;;6.00;;
50319;SDS011;36226;53.464;9.852;2023-02-12T07:07:44;25.30;;;7.60;;
50319;SDS011;36226;53.464;9.852;2023-02-12T07:10:09;28.10;;;7.57;;
50319;SDS011;36226;53.464;9.852;2023-02-12T07:12:35;28.80;;;7.78;;
50319;SDS011;36226;53.464;9.852;2023-02-12T07:15:00;24.27;;;8.18;;
50319;SDS011;36226;53.464;9.852;2023-02-12T07:17:27;26.52;;;7.63;;
50319;SDS011;36226;53.464;9.852;2023-02-12T07:19:54;36.13;;;8.90;;
50319;SDS011;36226;53.464;9.852;2023-02-12T07:22:19;28.58;;;8.20;;
50319;SDS011;36226;53.464;9.852;2023-02-12T07:24:46;26.17;;;7.57;;
50319;SDS011;36226;53.464;9.852;2023-02-12T07:27:11;42.58;;;9.52;;
50319;SDS011;36226;53.464;9.852;2023-02-12T07:29:37;28.02;;;8.10;;
50319;SDS011;36226;53.464;9.852;2023-02-12T07:32:02;24.33;;;7.05;;
50319;SDS011;36226;53.464;9.852;2023-02-12T07:34:28;30.73;;;7.88;;
50319;SDS011;36226;53.464;9.852;2023-02-12T07:36:53;29.50;;;7.85;;
50319;SDS011;36226;53.464;9.852;2023-02-12T07:39:18;35.92;;;8.45;;
50319;SDS011;36226;53.464;9.852;2023-02-12T07:41:44;39.20;;;10.25;;
50319;SDS011;36226;53.464;9.852;2023-02-12T07:44:10;30.65;;;9.23;;
50319;SDS011;36226;53.464;9.852;2023-02-12T07:46:37;42.80;;;10.05;;
50319;SDS011;36226;53.464;9.852;2023-02-12T07:49:05;37.85;;;9.50;;
50319;SDS011;36226;53.464;9.852;2023-02-12T07:51:32;35.70;;;9.80;;
50319;SDS011;36226;53.464;9.852;2023-02-12T07:53:58;37.25;;;8.65;;
50319;SDS011;36226;53.464;9.852;2023-02-12T07:56:28;38.70;;;10.38;;
50319;SDS011;36226;53.464;9.852;2023-02-12T07:58:57;42.90;;;10.02;;
50319;SDS011;36226;53.464;9.852;2023-02-12T08:03:52;30.90;;;10.40;;
50319;SDS011;36226;53.464;9.852;2023-02-12T08:06:21;40.00;;;10.25;;
50319;SDS011;36226;53.464;9.852;2023-02-12T08:08:51;33.35;;;11.07;;
50319;SDS011;36226;53.464;9.852;2023-02-12T08:11:21;33.05;;;10.27;;
50319;SDS011;36226;53.464;9.852;2023-02-12T08:13:46;32.17;;;11.18;;
50319;SDS011;36226;53.464;9.852;2023-02-12T08:16:13;43.72;;;11.48;;
50319;SDS011;36226;53.464;9.852;2023-02-12T08:18:40;30.17;;;10.75;;
50319;SDS011;36226;53.464;9.852;2023-02-12T08:21:07;34.88;;;11.10;;
50319;SDS011;36226;53.464;9.852;2023-02-12T08:23:34;31.23;;;11.65;;
50319;SDS011;36226;53.464;9.852;2023-02-12T08:26:04;31.02;;;11.05;;
50319;SDS011;36226;53.464;9.852;2023-02-12T08:28:30;31.85;;;11.02;;
50319;SDS011;36226;53.464;9.852;2023-02-12T08:30:59;34.47;;;11.70;;
50319;SDS011;36226;53.464;9.852;2023-02-12T08:33:32;32.60;;;11.07;;
50319;SDS011;36226;53.464;9.852;2023-02-12T08:36:01;26.50;;;11.38;;
50319;SDS011;36226;53.464;9.852;2023-02-12T08:38:34;29.52;;;11.35;;
50319;SDS011;36226;53.464;9.852;2023-02-12T08:41:00;31.67;;;11.82;;
50319;SDS011;36226;53.464;9.852;2023-02-12T08:43:30;31.27;;;11.50;;
50319;SDS011;36226;53.464;9.852;2023-02-12T08:48:41;30.40;;;11.52;;
50319;SDS011;36226;53.464;9.852;2023-02-12T08:51:11;27.02;;;10.82;;
50319;SDS011;36226;53.464;9.852;2023-02-12T08:53:41;28.60;;;11.43;;
50319;SDS011;36226;53.464;9.852;2023-02-12T08:56:07;28.75;;;12.30;;
50319;SDS011;36226;53.464;9.852;2023-02-12T08:58:34;25.88;;;11.98;;
50319;SDS011;36226;53.464;9.852;2023-02-12T09:01:00;27.27;;;11.20;;
50319;SDS011;36226;53.464;9.852;2023-02-12T09:03:25;26.00;;;11.25;;
50319;SDS011;36226;53.464;9.852;2023-02-12T09:05:51;26.15;;;11.10;;
50319;SDS011;36226;53.464;9.852;2023-02-12T09:08:17;25.10;;;10.82;;
50319;SDS011;36226;53.464;9.852;2023-02-12T09:10:42;25.75;;;10.90;;
50319;SDS011;36226;53.464;9.852;2023-02-12T09:13:08;27.13;;;10.63;;
50319;SDS011;36226;53.464;9.852;2023-02-12T09:15:38;27.20;;;11.35;;
50319;SDS011;36226;53.464;9.852;2023-02-12T09:18:07;26.83;;;10.88;;
50319;SDS011;36226;53.464;9.852;2023-02-12T09:20:35;24.55;;;10.45;;
50319;SDS011;36226;53.464;9.852;2023-02-12T09:23:02;26.10;;;10.93;;
50319;SDS011;36226;53.464;9.852;2023-02-12T09:25:30;27.13;;;10.35;;
50319;SDS011;36226;53.464;9.852;2023-02-12T09:27:58;25.35;;;11.25;;
50319;SDS011;36226;53.464;9.852;2023-02-12T09:30:24;23.83;;;10.60;;
50319;SDS011;36226;53.464;9.852;2023-02-12T09:32:49;23.15;;;9.65;;
50319;SDS011;36226;53.464;9.852;2023-02-12T09:35:14;23.98;;;9.25;;
50319;SDS011;36226;53.464;9.852;2023-02-12T09:37:40;29.08;;;13.55;;
50319;SDS011;36226;53.464;9.852;2023-02-12T09:40:06;21.85;;;9.70;;
50319;SDS011;36226;53.464;9.852;2023-02-12T09:42:56;22.45;;;10.05;;
50319;SDS011;36226;53.464;9.852;2023-02-12T09:45:34;21.88;;;9.45;;
50319;SDS011;36226;53.464;9.852;2023-02-12T09:48:04;18.45;;;8.75;;
50319;SDS011;36226;53.464;9.852;2023-02-12T09:50:52;21.42;;;8.82;;
50319;SDS011;36226;53.464;9.852;2023-02-12T09:53:26;20.05;;;9.45;;
50319;SDS011;36226;53.464;9.852;2023-02-12T09:55:54;17.45;;;8.05;;
50319;SDS011;36226;53.464;9.852;2023-02-12T10:00:48;21.77;;;8.38;;
50319;SDS011;36226;53.464;9.852;2023-02-12T10:03:14;21.52;;;8.95;;
50319;SDS011;36226;53.464;9.852;2023-02-12T10:05:45;22.35;;;8.85;;
50319;SDS011;36226;53.464;9.852;2023-02-12T10:19:22;21.35;;;9.27;;
50319;SDS011;36226;53.464;9.852;2023-02-12T10:22:00;20.88;;;8.80;;
50319;SDS011;36226;53.464;9.852;2023-02-12T10:24:44;20.27;;;9.25;;
50319;SDS011;36226;53.464;9.852;2023-02-12T10:27:37;23.58;;;8.57;;
50319;SDS011;36226;53.464;9.852;2023-02-12T10:32:43;16.25;;;7.35;;
50319;SDS011;36226;53.464;9.852;2023-02-12T10:35:13;18.20;;;7.72;;
50319;SDS011;36226;53.464;9.852;2023-02-12T10:38:05;17.52;;;8.18;;
50319;SDS011;36226;53.464;9.852;2023-02-12T10:40:48;38.60;;;17.95;;
50319;SDS011;36226;53.464;9.852;2023-02-12T10:43:19;22.23;;;8.40;;
50319;SDS011;36226;53.464;9.852;2023-02-12T10:45:44;21.55;;;9.35;;
50319;SDS011;36226;53.464;9.852;2023-02-12T10:48:12;22.85;;;9.75;;
50319;SDS011;36226;53.464;9.852;2023-02-12T10:53:22;22.88;;;9.38;;
50319;SDS011;36226;53.464;9.852;2023-02-12T10:55:49;24.52;;;10.90;;
50319;SDS011;36226;53.464;9.852;2023-02-12T10:58:31;31.88;;;11.55;;
50319;SDS011;36226;53.464;9.852;2023-02-12T11:00:57;31.42;;;11.90;;
50319;SDS011;36226;53.464;9.852;2023-02-12T11:03:27;54.72;;;11.82;;
50319;SDS011;36226;53.464;9.852;2023-02-12T11:06:15;29.23;;;10.38;;
50319;SDS011;36226;53.464;9.852;2023-02-12T11:08:41;27.88;;;10.15;;
50319;SDS011;36226;53.464;9.852;2023-02-12T11:11:08;34.22;;;10.25;;
50319;SDS011;36226;53.464;9.852;2023-02-12T11:13:46;24.27;;;9.88;;
50319;SDS011;36226;53.464;9.852;2023-02-12T11:16:33;23.20;;;9.70;;
50319;SDS011;36226;53.464;9.852;2023-02-12T11:19:02;24.73;;;9.25;;
50319;SDS011;36226;53.464;9.852;2023-02-12T11:21:29;24.77;;;10.45;;
50319;SDS011;36226;53.464;9.852;2023-02-12T11:23:54;27.17;;;10.55;;
50319;SDS011;36226;53.464;9.852;2023-02-12T11:26:25;28.05;;;11.15;;
50319;SDS011;36226;53.464;9.852;2023-02-12T11:31:21;23.35;;;8.85;;
50319;SDS011;36226;53.464;9.852;2023-02-12T11:36:32;24.60;;;9.48;;
50319;SDS011;36226;53.464;9.852;2023-02-12T11:38:59;27.63;;;9.68;;
50319;SDS011;36226;53.464;9.852;2023-02-12T11:41:38;24.55;;;10.30;;
50319;SDS011;36226;53.464;9.852;2023-02-12T11:44:08;21.77;;;9.50;;
50319;SDS011;36226;53.464;9.852;2023-02-12T11:46:35;24.15;;;8.75;;
50319;SDS011;36226;53.464;9.852;2023-02-12T11:49:01;24.00;;;9.43;;
50319;SDS011;36226;53.464;9.852;2023-02-12T11:51:27;24.30;;;8.93;;
50319;SDS011;36226;53.464;9.852;2023-02-12T11:53:54;24.33;;;8.57;;
50319;SDS011;36226;53.464;9.852;2023-02-12T11:56:25;21.17;;;9.32;;
50319;SDS011;36226;53.464;9.852;2023-02-12T11:59:47;18.58;;;7.80;;
50319;SDS011;36226;53.464;9.852;2023-02-12T12:04:48;14.90;;;6.25;;
50319;SDS011;36226;53.464;9.852;2023-02-12T12:07:19;16.25;;;6.45;;
50319;SDS011;36226;53.464;9.852;2023-02-12T12:10:30;15.63;;;5.90;;
50319;SDS011;36226;53.464;9.852;2023-02-12T12:12:47;13.40;;;6.30;;
50319;SDS011;36226;53.464;9.852;2023-02-12T12:15:29;11.65;;;5.60;;
50319;SDS011;36226;53.464;9.852;2023-02-12T12:24:37;14.85;;;6.95;;
50319;SDS011;36226;53.464;9.852;2023-02-12T12:27:19;14.60;;;6.93;;
50319;SDS011;36226;53.464;9.852;2023-02-12T12:30:18;12.70;;;5.75;;
50319;SDS011;36226;53.464;9.852;2023-02-12T12:49:27;13.73;;;6.28;;
50319;SDS011;36226;53.464;9.852;2023-02-12T13:11:08;7.78;;;4.05;;
50319;SDS011;36226;53.464;9.852;2023-02-12T13:13:47;7.25;;;4.35;;
50319;SDS011;36226;53.464;9.852;2023-02-12T13:16:27;6.47;;;3.97;;
50319;SDS011;36226;53.464;9.852;2023-02-12T13:21:41;6.88;;;4.10;;
50319;SDS011;36226;53.464;9.852;2023-02-12T13:24:22;6.47;;;3.65;;
50319;SDS011;36226;53.464;9.852;2023-02-12T13:26:54;5.72;;;3.35;;
50319;SDS011;36226;53.464;9.852;2023-02-12T13:31:53;5.60;;;3.08;;
50319;SDS011;36226;53.464;9.852;2023-02-12T13:34:20;6.32;;;3.67;;
50319;SDS011;36226;53.464;9.852;2023-02-12T13:36:46;7.35;;;4.60;;
50319;SDS011;36226;53.464;9.852;2023-02-12T13:41:44;3.75;;;2.25;;
50319;SDS011;36226;53.464;9.852;2023-02-12T13:44:18;4.93;;;2.97;;
50319;SDS011;36226;53.464;9.852;2023-02-12T13:47:33;5.95;;;2.95;;
50319;SDS011;36226;53.464;9.852;2023-02-12T13:50:09;5.65;;;3.08;;
50319;SDS011;36226;53.464;9.852;2023-02-12T13:52:57;7.57;;;4.85;;
50319;SDS011;36226;53.464;9.852;2023-02-12T14:03:24;3.47;;;2.10;;
50319;SDS011;36226;53.464;9.852;2023-02-12T14:08:52;2.97;;;1.70;;
50319;SDS011;36226;53.464;9.852;2023-02-12T14:11:32;5.10;;;2.97;;
50319;SDS011;36226;53.464;9.852;2023-02-12T14:13:59;10.18;;;6.32;;
50319;SDS011;36226;53.464;9.852;2023-02-12T14:21:58;7.38;;;4.82;;
50319;SDS011;36226;53.464;9.852;2023-02-12T14:27:03;5.65;;;3.47;;
50319;SDS011;36226;53.464;9.852;2023-02-12T14:29:30;5.45;;;3.40;;
50319;SDS011;36226;53.464;9.852;2023-02-12T14:31:56;22.20;;;12.50;;
50319;SDS011;36226;53.464;9.852;2023-02-12T14:40:28;9.05;;;5.28;;
50319;SDS011;36226;53.464;9.852;2023-02-12T14:42:58;23.10;;;11.63;;
50319;SDS011;36226;53.464;9.852;2023-02-12T14:45:29;15.40;;;9.00;;
50319;SDS011;36226;53.464;9.852;2023-02-12T14:47:59;10.70;;;6.45;;
50319;SDS011;36226;53.464;9.852;2023-02-12T14:50:25;9.85;;;6.43;;
50319;SDS011;36226;53.464;9.852;2023-02-12T14:52:59;4.00;;;2.92;;
50319;SDS011;36226;53.464;9.852;2023-02-12T14:55:30;6.30;;;4.07;;
50319;SDS011;36226;53.464;9.852;2023-02-12T14:58:02;4.40;;;3.20;;
50319;SDS011;36226;53.464;9.852;2023-02-12T15:08:30;5.97;;;4.50;;
50319;SDS011;36226;53.464;9.852;2023-02-12T15:13:53;3.45;;;2.47;;
50319;SDS011;36226;53.464;9.852;2023-02-12T15:16:23;6.20;;;3.17;;
50319;SDS011;36226;53.464;9.852;2023-02-12T15:19:33;4.00;;;2.75;;
50319;SDS011;36226;53.464;9.852;2023-02-12T15:21:42;5.30;;;3.50;;
50319;SDS011;36226;53.464;9.852;2023-02-12T15:24:10;8.48;;;4.10;;
50319;SDS011;36226;53.464;9.852;2023-02-12T15:26:41;6.00;;;3.95;;
50319;SDS011;36226;53.464;9.852;2023-02-12T15:29:44;5.68;;;3.88;;
50319;SDS011;36226;53.464;9.852;2023-02-12T15:32:05;5.88;;;3.92;;
50319;SDS011;36226;53.464;9.852;2023-02-12T15:34:32;8.07;;;5.50;;
50319;SDS011;36226;53.464;9.852;2023-02-12T15:37:00;5.43;;;4.32;;
50319;SDS011;36226;53.464;9.852;2023-02-12T15:39:27;4.07;;;3.05;;
50319;SDS011;36226;53.464;9.852;2023-02-12T15:47:39;6.88;;;4.00;;
50319;SDS011;36226;53.464;9.852;2023-02-12T15:50:05;4.97;;;3.38;;
50319;SDS011;36226;53.464;9.852;2023-02-12T15:52:32;5.57;;;3.30;;
50319;SDS011;36226;53.464;9.852;2023-02-12T15:55:01;3.63;;;2.75;;
50319;SDS011;36226;53.464;9.852;2023-02-12T15:57:28;4.35;;;3.20;;
50319;SDS011;36226;53.464;9.852;2023-02-12T15:59:55;6.15;;;3.50;;
50319;SDS011;36226;53.464;9.852;2023-02-12T16:02:26;6.05;;;3.50;;
50319;SDS011;36226;53.464;9.852;2023-02-12T16:04:53;6.25;;;3.20;;
50319;SDS011;36226;53.464;9.852;2023-02-12T16:07:22;4.97;;;3.33;;
50319;SDS011;36226;53.464;9.852;2023-02-12T16:09:49;4.43;;;3.20;;
50319;SDS011;36226;53.464;9.852;2023-02-12T16:12:18;5.07;;;2.95;;
50319;SDS011;36226;53.464;9.852;2023-02-12T16:14:45;9.65;;;4.32;;
50319;SDS011;36226;53.464;9.852;2023-02-12T16:19:58;7.30;;;5.50;;
50319;SDS011;36226;53.464;9.852;2023-02-12T16:22:37;11.80;;;9.23;;
50319;SDS011;36226;53.464;9.852;2023-02-12T16:25:14;8.15;;;5.88;;
50319;SDS011;36226;53.464;9.852;2023-02-12T16:27:42;6.97;;;5.50;;
50319;SDS011;36226;53.464;9.852;2023-02-12T16:30:37;7.97;;;4.32;;
50319;SDS011;36226;53.464;9.852;2023-02-12T16:33:30;6.45;;;4.55;;
50319;SDS011;36226;53.464;9.852;2023-02-12T16:36:04;11.43;;;6.82;;
50319;SDS011;36226;53.464;9.852;2023-02-12T16:38:49;11.45;;;8.30;;
50319;SDS011;36226;53.464;9.852;2023-02-12T16:43:44;7.75;;;5.53;;
50319;SDS011;36226;53.464;9.852;2023-02-12T16:46:11;10.10;;;5.68;;
50319;SDS011;36226;53.464;9.852;2023-02-12T16:48:46;9.90;;;6.80;;
50319;SDS011;36226;53.464;9.852;2023-02-12T16:53:47;12.32;;;8.00;;
50319;SDS011;36226;53.464;9.852;2023-02-12T16:56:17;12.38;;;7.28;;
50319;SDS011;36226;53.464;9.852;2023-02-12T16:58:45;11.20;;;7.88;;
50319;SDS011;36226;53.464;9.852;2023-02-12T17:01:28;12.15;;;7.78;;
50319;SDS011;36226;53.464;9.852;2023-02-12T17:03:56;19.20;;;9.73;;
50319;SDS011;36226;53.464;9.852;2023-02-12T17:06:23;19.75;;;10.63;;
50319;SDS011;36226;53.464;9.852;2023-02-12T17:08:50;12.63;;;7.93;;
50319;SDS011;36226;53.464;9.852;2023-02-12T17:11:16;9.00;;;6.05;;
50319;SDS011;36226;53.464;9.852;2023-02-12T17:13:46;14.07;;;8.18;;
50319;SDS011;36226;53.464;9.852;2023-02-12T17:16:12;14.90;;;9.02;;
50319;SDS011;36226;53.464;9.852;2023-02-12T17:18:38;13.63;;;9.27;;
50319;SDS011;36226;53.464;9.852;2023-02-12T17:21:05;15.50;;;10.70;;
50319;SDS011;36226;53.464;9.852;2023-02-12T17:23:32;15.93;;;11.18;;
50319;SDS011;36226;53.464;9.852;2023-02-12T17:25:58;14.48;;;9.18;;
50319;SDS011;36226;53.464;9.852;2023-02-12T17:28:23;12.85;;;8.18;;
50319;SDS011;36226;53.464;9.852;2023-02-12T17:30:49;18.05;;;10.40;;
50319;SDS011;36226;53.464;9.852;2023-02-12T17:33:16;11.25;;;7.53;;
50319;SDS011;36226;53.464;9.852;2023-02-12T17:35:41;11.27;;;7.03;;
50319;SDS011;36226;53.464;9.852;2023-02-12T17:38:07;12.52;;;7.60;;
50319;SDS011;36226;53.464;9.852;2023-02-12T17:40:33;13.52;;;9.15;;
50319;SDS011;36226;53.464;9.852;2023-02-12T17:43:00;15.50;;;8.50;;
50319;SDS011;36226;53.464;9.852;2023-02-12T17:45:26;12.93;;;8.00;;
50319;SDS011;36226;53.464;9.852;2023-02-12T17:47:51;12.93;;;7.85;;
50319;SDS011;36226;53.464;9.852;2023-02-12T17:50:16;12.88;;;7.85;;
50319;SDS011;36226;53.464;9.852;2023-02-12T17:52:42;12.95;;;8.43;;